Terminal Aerodrome Forecast
Issued by NWS

Home | Current Version | Previous Version | Text Only | Print | Product List | Glossary On
Versions: 1 2 3 4 5 6 7 8 9 10 11 12 13 14 15 16 17 18 19 20 21 22 23 24 25 26 27 28 29 30 31 32 33 34 35 36
000
FTUS46 KOTX 212012 AAA
TAFPUW
TAF AMD
KPUW 212012Z 2120/2218 25005KT 2SM -SNRA BR SCT006 OVC016
     FM212200 25014G22KT 1SM -SN BR OVC012
     FM220300 24015G25KT 6SM -SHSN SCT007 BKN015 OVC040
     FM220500 24014G20KT P6SM SCT030 BKN040 OVC100
     FM220700 24013KT P6SM SCT040 BKN150=

USA.gov is the U.S. government's official web portal to all federal, state and local government web resources and services.